sensor_id;sensor_type;location;lat;lon;timestamp;P1;durP1;ratioP1;P2;durP2;ratioP2
11506;SDS011;5810;51.180;6.646;2022-08-03T00:00:05;0.60;;;0.60;;
11506;SDS011;5810;51.180;6.646;2022-08-03T00:02:31;0.60;;;0.60;;
11506;SDS011;5810;51.180;6.646;2022-08-03T00:04:57;0.80;;;0.80;;
11506;SDS011;5810;51.180;6.646;2022-08-03T00:07:23;0.60;;;0.60;;
11506;SDS011;5810;51.180;6.646;2022-08-03T00:09:49;0.60;;;0.60;;
11506;SDS011;5810;51.180;6.646;2022-08-03T00:12:15;0.60;;;0.60;;
11506;SDS011;5810;51.180;6.646;2022-08-03T00:14:41;0.60;;;0.60;;
11506;SDS011;5810;51.180;6.646;2022-08-03T00:17:07;0.75;;;0.75;;
11506;SDS011;5810;51.180;6.646;2022-08-03T00:19:33;0.60;;;0.60;;
11506;SDS011;5810;51.180;6.646;2022-08-03T00:21:59;0.60;;;0.60;;
11506;SDS011;5810;51.180;6.646;2022-08-03T00:24:25;0.85;;;0.85;;
11506;SDS011;5810;51.180;6.646;2022-08-03T00:26:52;3.67;;;1.02;;
11506;SDS011;5810;51.180;6.646;2022-08-03T00:29:17;0.60;;;0.60;;
11506;SDS011;5810;51.180;6.646;2022-08-03T00:31:43;0.65;;;0.65;;
11506;SDS011;5810;51.180;6.646;2022-08-03T00:34:09;0.80;;;0.80;;
11506;SDS011;5810;51.180;6.646;2022-08-03T00:36:35;0.68;;;0.68;;
11506;SDS011;5810;51.180;6.646;2022-08-03T00:39:01;0.60;;;0.60;;
11506;SDS011;5810;51.180;6.646;2022-08-03T00:41:27;0.70;;;0.70;;
11506;SDS011;5810;51.180;6.646;2022-08-03T00:43:53;0.70;;;0.70;;
11506;SDS011;5810;51.180;6.646;2022-08-03T00:46:19;0.65;;;0.65;;
11506;SDS011;5810;51.180;6.646;2022-08-03T00:48:46;0.50;;;0.50;;
11506;SDS011;5810;51.180;6.646;2022-08-03T00:51:12;0.55;;;0.55;;
11506;SDS011;5810;51.180;6.646;2022-08-03T00:53:39;0.60;;;0.60;;
11506;SDS011;5810;51.180;6.646;2022-08-03T00:56:05;0.50;;;0.50;;
11506;SDS011;5810;51.180;6.646;2022-08-03T00:58:31;0.60;;;0.60;;
11506;SDS011;5810;51.180;6.646;2022-08-03T01:00:57;0.52;;;0.52;;
11506;SDS011;5810;51.180;6.646;2022-08-03T01:03:23;0.50;;;0.50;;
11506;SDS011;5810;51.180;6.646;2022-08-03T01:11:04;0.70;;;0.70;;
11506;SDS011;5810;51.180;6.646;2022-08-03T01:18:54;0.50;;;0.50;;
11506;SDS011;5810;51.180;6.646;2022-08-03T01:21:26;0.60;;;0.60;;
11506;SDS011;5810;51.180;6.646;2022-08-03T01:29:11;0.68;;;0.68;;
11506;SDS011;5810;51.180;6.646;2022-08-03T01:31:47;0.57;;;0.57;;
11506;SDS011;5810;51.180;6.646;2022-08-03T01:34:16;0.60;;;0.60;;
11506;SDS011;5810;51.180;6.646;2022-08-03T01:36:48;0.55;;;0.55;;
11506;SDS011;5810;51.180;6.646;2022-08-03T01:39:15;0.70;;;0.70;;
11506;SDS011;5810;51.180;6.646;2022-08-03T01:41:49;0.55;;;0.55;;
11506;SDS011;5810;51.180;6.646;2022-08-03T01:44:17;0.60;;;0.60;;
11506;SDS011;5810;51.180;6.646;2022-08-03T01:46:45;0.60;;;0.60;;
11506;SDS011;5810;51.180;6.646;2022-08-03T01:49:13;0.50;;;0.50;;
11506;SDS011;5810;51.180;6.646;2022-08-03T01:51:41;0.50;;;0.50;;
11506;SDS011;5810;51.180;6.646;2022-08-03T01:54:08;0.50;;;0.50;;
11506;SDS011;5810;51.180;6.646;2022-08-03T01:56:35;0.95;;;0.95;;
11506;SDS011;5810;51.180;6.646;2022-08-03T01:59:02;0.60;;;0.60;;
11506;SDS011;5810;51.180;6.646;2022-08-03T02:01:29;0.60;;;0.60;;
11506;SDS011;5810;51.180;6.646;2022-08-03T02:03:56;0.60;;;0.60;;
11506;SDS011;5810;51.180;6.646;2022-08-03T02:06:23;0.52;;;0.52;;
11506;SDS011;5810;51.180;6.646;2022-08-03T02:08:50;0.55;;;0.55;;
11506;SDS011;5810;51.180;6.646;2022-08-03T02:11:17;0.50;;;0.50;;
11506;SDS011;5810;51.180;6.646;2022-08-03T02:13:43;0.68;;;0.68;;
11506;SDS011;5810;51.180;6.646;2022-08-03T02:16:10;0.40;;;0.40;;
11506;SDS011;5810;51.180;6.646;2022-08-03T02:18:38;0.80;;;0.80;;
11506;SDS011;5810;51.180;6.646;2022-08-03T02:21:04;0.50;;;0.50;;
11506;SDS011;5810;51.180;6.646;2022-08-03T02:23:32;0.60;;;0.60;;
11506;SDS011;5810;51.180;6.646;2022-08-03T02:25:59;0.50;;;0.50;;
11506;SDS011;5810;51.180;6.646;2022-08-03T02:28:36;0.52;;;0.52;;
11506;SDS011;5810;51.180;6.646;2022-08-03T02:31:08;0.60;;;0.60;;
11506;SDS011;5810;51.180;6.646;2022-08-03T02:33:36;0.85;;;0.85;;
11506;SDS011;5810;51.180;6.646;2022-08-03T02:36:04;0.50;;;0.50;;
11506;SDS011;5810;51.180;6.646;2022-08-03T02:38:32;0.70;;;0.70;;
11506;SDS011;5810;51.180;6.646;2022-08-03T02:40:58;0.70;;;0.70;;
11506;SDS011;5810;51.180;6.646;2022-08-03T02:43:25;1.55;;;1.00;;
11506;SDS011;5810;51.180;6.646;2022-08-03T02:45:55;0.57;;;0.57;;
11506;SDS011;5810;51.180;6.646;2022-08-03T02:48:22;0.50;;;0.50;;
11506;SDS011;5810;51.180;6.646;2022-08-03T02:50:50;0.60;;;0.60;;
11506;SDS011;5810;51.180;6.646;2022-08-03T02:53:17;0.60;;;0.60;;
11506;SDS011;5810;51.180;6.646;2022-08-03T02:55:45;0.60;;;0.60;;
11506;SDS011;5810;51.180;6.646;2022-08-03T02:58:12;0.50;;;0.50;;
11506;SDS011;5810;51.180;6.646;2022-08-03T03:00:38;0.50;;;0.50;;
11506;SDS011;5810;51.180;6.646;2022-08-03T03:03:04;0.60;;;0.60;;
11506;SDS011;5810;51.180;6.646;2022-08-03T03:05:31;0.60;;;0.60;;
11506;SDS011;5810;51.180;6.646;2022-08-03T03:07:57;1.13;;;0.77;;
11506;SDS011;5810;51.180;6.646;2022-08-03T03:10:23;0.60;;;0.60;;
11506;SDS011;5810;51.180;6.646;2022-08-03T03:12:51;0.55;;;0.55;;
11506;SDS011;5810;51.180;6.646;2022-08-03T03:17:54;0.60;;;0.60;;
11506;SDS011;5810;51.180;6.646;2022-08-03T03:20:23;0.55;;;0.55;;
11506;SDS011;5810;51.180;6.646;2022-08-03T03:22:53;0.60;;;0.60;;
11506;SDS011;5810;51.180;6.646;2022-08-03T03:25:24;0.80;;;0.80;;
11506;SDS011;5810;51.180;6.646;2022-08-03T03:27:53;0.50;;;0.50;;
11506;SDS011;5810;51.180;6.646;2022-08-03T03:30:19;0.50;;;0.50;;
11506;SDS011;5810;51.180;6.646;2022-08-03T03:32:45;0.60;;;0.60;;
11506;SDS011;5810;51.180;6.646;2022-08-03T03:35:14;0.70;;;0.70;;
11506;SDS011;5810;51.180;6.646;2022-08-03T03:37:40;0.50;;;0.50;;
11506;SDS011;5810;51.180;6.646;2022-08-03T03:40:06;0.50;;;0.50;;
11506;SDS011;5810;51.180;6.646;2022-08-03T03:42:36;0.50;;;0.50;;
11506;SDS011;5810;51.180;6.646;2022-08-03T03:45:05;0.60;;;0.60;;
11506;SDS011;5810;51.180;6.646;2022-08-03T03:47:35;0.77;;;0.77;;
11506;SDS011;5810;51.180;6.646;2022-08-03T03:50:04;0.60;;;0.60;;
11506;SDS011;5810;51.180;6.646;2022-08-03T03:52:31;0.60;;;0.60;;
11506;SDS011;5810;51.180;6.646;2022-08-03T03:54:57;0.50;;;0.50;;
11506;SDS011;5810;51.180;6.646;2022-08-03T03:57:23;0.98;;;0.98;;
11506;SDS011;5810;51.180;6.646;2022-08-03T03:59:50;0.70;;;0.70;;
11506;SDS011;5810;51.180;6.646;2022-08-03T04:02:16;0.40;;;0.40;;
11506;SDS011;5810;51.180;6.646;2022-08-03T04:04:42;0.60;;;0.60;;
11506;SDS011;5810;51.180;6.646;2022-08-03T04:07:26;0.70;;;0.70;;
11506;SDS011;5810;51.180;6.646;2022-08-03T04:10:14;0.60;;;0.60;;
11506;SDS011;5810;51.180;6.646;2022-08-03T04:13:00;0.60;;;0.60;;
11506;SDS011;5810;51.180;6.646;2022-08-03T04:15:27;0.50;;;0.50;;
11506;SDS011;5810;51.180;6.646;2022-08-03T04:17:54;0.50;;;0.50;;
11506;SDS011;5810;51.180;6.646;2022-08-03T04:20:21;0.50;;;0.50;;
11506;SDS011;5810;51.180;6.646;2022-08-03T04:22:48;0.50;;;0.50;;
11506;SDS011;5810;51.180;6.646;2022-08-03T04:25:16;0.60;;;0.60;;
11506;SDS011;5810;51.180;6.646;2022-08-03T04:27:43;0.50;;;0.50;;
11506;SDS011;5810;51.180;6.646;2022-08-03T04:30:11;0.50;;;0.50;;
11506;SDS011;5810;51.180;6.646;2022-08-03T04:32:37;0.50;;;0.50;;
11506;SDS011;5810;51.180;6.646;2022-08-03T04:35:04;0.50;;;0.50;;
11506;SDS011;5810;51.180;6.646;2022-08-03T04:37:37;0.50;;;0.50;;
11506;SDS011;5810;51.180;6.646;2022-08-03T04:40:05;0.40;;;0.40;;
11506;SDS011;5810;51.180;6.646;2022-08-03T04:42:32;0.68;;;0.68;;
11506;SDS011;5810;51.180;6.646;2022-08-03T04:44:58;0.40;;;0.40;;
11506;SDS011;5810;51.180;6.646;2022-08-03T04:47:24;1.55;;;0.98;;
11506;SDS011;5810;51.180;6.646;2022-08-03T04:49:51;0.45;;;0.45;;
11506;SDS011;5810;51.180;6.646;2022-08-03T04:52:17;0.57;;;0.57;;
11506;SDS011;5810;51.180;6.646;2022-08-03T04:54:44;0.57;;;0.57;;
11506;SDS011;5810;51.180;6.646;2022-08-03T04:57:10;0.75;;;0.75;;
11506;SDS011;5810;51.180;6.646;2022-08-03T04:59:36;0.50;;;0.50;;
11506;SDS011;5810;51.180;6.646;2022-08-03T05:02:02;0.50;;;0.50;;
11506;SDS011;5810;51.180;6.646;2022-08-03T05:04:28;0.50;;;0.50;;
11506;SDS011;5810;51.180;6.646;2022-08-03T05:06:54;0.50;;;0.50;;
11506;SDS011;5810;51.180;6.646;2022-08-03T05:09:21;0.60;;;0.60;;
11506;SDS011;5810;51.180;6.646;2022-08-03T05:11:47;0.50;;;0.50;;
11506;SDS011;5810;51.180;6.646;2022-08-03T05:14:13;0.70;;;0.70;;
11506;SDS011;5810;51.180;6.646;2022-08-03T05:16:39;1.58;;;1.33;;
11506;SDS011;5810;51.180;6.646;2022-08-03T05:19:05;0.57;;;0.57;;
11506;SDS011;5810;51.180;6.646;2022-08-03T05:21:31;0.57;;;0.57;;
11506;SDS011;5810;51.180;6.646;2022-08-03T05:23:57;0.50;;;0.50;;
11506;SDS011;5810;51.180;6.646;2022-08-03T05:26:23;0.52;;;0.52;;
11506;SDS011;5810;51.180;6.646;2022-08-03T05:28:49;0.52;;;0.52;;
11506;SDS011;5810;51.180;6.646;2022-08-03T05:31:16;0.50;;;0.50;;
11506;SDS011;5810;51.180;6.646;2022-08-03T05:33:42;0.50;;;0.50;;
11506;SDS011;5810;51.180;6.646;2022-08-03T05:36:08;0.50;;;0.50;;
11506;SDS011;5810;51.180;6.646;2022-08-03T05:38:34;0.50;;;0.50;;
11506;SDS011;5810;51.180;6.646;2022-08-03T05:41:01;0.60;;;0.60;;
11506;SDS011;5810;51.180;6.646;2022-08-03T05:43:27;0.40;;;0.40;;
11506;SDS011;5810;51.180;6.646;2022-08-03T05:45:53;0.50;;;0.50;;
11506;SDS011;5810;51.180;6.646;2022-08-03T05:48:19;0.68;;;0.68;;
11506;SDS011;5810;51.180;6.646;2022-08-03T05:50:45;0.60;;;0.60;;
11506;SDS011;5810;51.180;6.646;2022-08-03T05:53:11;0.50;;;0.50;;
11506;SDS011;5810;51.180;6.646;2022-08-03T05:55:37;0.40;;;0.40;;
11506;SDS011;5810;51.180;6.646;2022-08-03T05:58:03;0.50;;;0.50;;
11506;SDS011;5810;51.180;6.646;2022-08-03T06:00:29;0.40;;;0.40;;
11506;SDS011;5810;51.180;6.646;2022-08-03T06:02:55;0.93;;;0.93;;
11506;SDS011;5810;51.180;6.646;2022-08-03T06:05:21;0.50;;;0.50;;
11506;SDS011;5810;51.180;6.646;2022-08-03T06:07:48;0.80;;;0.80;;
11506;SDS011;5810;51.180;6.646;2022-08-03T06:10:14;0.68;;;0.68;;
11506;SDS011;5810;51.180;6.646;2022-08-03T06:12:40;0.70;;;0.70;;
11506;SDS011;5810;51.180;6.646;2022-08-03T06:15:06;0.40;;;0.40;;
11506;SDS011;5810;51.180;6.646;2022-08-03T06:17:32;0.65;;;0.65;;
11506;SDS011;5810;51.180;6.646;2022-08-03T06:19:58;0.50;;;0.50;;
11506;SDS011;5810;51.180;6.646;2022-08-03T06:22:24;0.57;;;0.57;;
11506;SDS011;5810;51.180;6.646;2022-08-03T06:24:50;0.50;;;0.50;;
11506;SDS011;5810;51.180;6.646;2022-08-03T06:27:16;1.05;;;1.05;;
11506;SDS011;5810;51.180;6.646;2022-08-03T06:29:42;0.50;;;0.50;;
11506;SDS011;5810;51.180;6.646;2022-08-03T06:32:08;0.57;;;0.57;;
11506;SDS011;5810;51.180;6.646;2022-08-03T06:34:34;0.50;;;0.50;;
11506;SDS011;5810;51.180;6.646;2022-08-03T06:37:00;0.70;;;0.70;;
11506;SDS011;5810;51.180;6.646;2022-08-03T06:39:26;0.50;;;0.50;;
11506;SDS011;5810;51.180;6.646;2022-08-03T06:41:52;0.60;;;0.60;;
11506;SDS011;5810;51.180;6.646;2022-08-03T06:44:18;0.80;;;0.80;;
11506;SDS011;5810;51.180;6.646;2022-08-03T06:46:44;0.60;;;0.60;;
11506;SDS011;5810;51.180;6.646;2022-08-03T06:49:11;0.60;;;0.60;;
11506;SDS011;5810;51.180;6.646;2022-08-03T06:51:37;0.50;;;0.50;;
11506;SDS011;5810;51.180;6.646;2022-08-03T06:54:03;0.80;;;0.80;;
11506;SDS011;5810;51.180;6.646;2022-08-03T06:56:29;0.60;;;0.60;;
11506;SDS011;5810;51.180;6.646;2022-08-03T06:58:55;0.50;;;0.50;;
11506;SDS011;5810;51.180;6.646;2022-08-03T07:01:21;0.50;;;0.50;;
11506;SDS011;5810;51.180;6.646;2022-08-03T07:03:47;0.70;;;0.70;;
11506;SDS011;5810;51.180;6.646;2022-08-03T07:06:13;1.27;;;0.90;;
11506;SDS011;5810;51.180;6.646;2022-08-03T07:08:39;0.60;;;0.60;;
11506;SDS011;5810;51.180;6.646;2022-08-03T07:11:05;0.85;;;0.85;;
11506;SDS011;5810;51.180;6.646;2022-08-03T07:13:31;0.60;;;0.60;;
11506;SDS011;5810;51.180;6.646;2022-08-03T07:15:57;0.70;;;0.70;;
11506;SDS011;5810;51.180;6.646;2022-08-03T07:18:23;0.50;;;0.50;;
11506;SDS011;5810;51.180;6.646;2022-08-03T07:20:49;0.60;;;0.60;;
11506;SDS011;5810;51.180;6.646;2022-08-03T07:23:15;0.70;;;0.70;;
11506;SDS011;5810;51.180;6.646;2022-08-03T07:25:41;0.63;;;0.63;;
11506;SDS011;5810;51.180;6.646;2022-08-03T07:28:07;0.60;;;0.60;;
11506;SDS011;5810;51.180;6.646;2022-08-03T07:30:33;0.63;;;0.63;;
11506;SDS011;5810;51.180;6.646;2022-08-03T07:32:59;0.60;;;0.60;;
11506;SDS011;5810;51.180;6.646;2022-08-03T07:35:25;0.60;;;0.60;;
11506;SDS011;5810;51.180;6.646;2022-08-03T07:37:52;0.50;;;0.50;;
11506;SDS011;5810;51.180;6.646;2022-08-03T07:40:18;0.60;;;0.60;;
11506;SDS011;5810;51.180;6.646;2022-08-03T07:42:44;0.70;;;0.70;;
11506;SDS011;5810;51.180;6.646;2022-08-03T07:45:10;0.60;;;0.60;;
11506;SDS011;5810;51.180;6.646;2022-08-03T07:47:36;0.65;;;0.65;;
11506;SDS011;5810;51.180;6.646;2022-08-03T07:50:02;0.60;;;0.60;;
11506;SDS011;5810;51.180;6.646;2022-08-03T07:52:29;0.60;;;0.60;;
11506;SDS011;5810;51.180;6.646;2022-08-03T07:55:13;0.60;;;0.60;;
11506;SDS011;5810;51.180;6.646;2022-08-03T07:57:39;0.65;;;0.65;;
11506;SDS011;5810;51.180;6.646;2022-08-03T08:00:06;0.60;;;0.60;;
11506;SDS011;5810;51.180;6.646;2022-08-03T08:02:33;0.60;;;0.60;;
11506;SDS011;5810;51.180;6.646;2022-08-03T08:04:59;0.80;;;0.80;;
11506;SDS011;5810;51.180;6.646;2022-08-03T08:07:25;0.50;;;0.50;;
11506;SDS011;5810;51.180;6.646;2022-08-03T08:09:51;0.60;;;0.60;;
11506;SDS011;5810;51.180;6.646;2022-08-03T08:12:17;0.50;;;0.50;;
11506;SDS011;5810;51.180;6.646;2022-08-03T08:14:43;0.60;;;0.60;;
11506;SDS011;5810;51.180;6.646;2022-08-03T08:17:12;0.60;;;0.60;;
11506;SDS011;5810;51.180;6.646;2022-08-03T08:19:39;0.60;;;0.60;;
11506;SDS011;5810;51.180;6.646;2022-08-03T08:22:05;0.50;;;0.50;;
11506;SDS011;5810;51.180;6.646;2022-08-03T08:24:31;0.60;;;0.60;;
11506;SDS011;5810;51.180;6.646;2022-08-03T08:26:58;0.80;;;0.80;;
11506;SDS011;5810;51.180;6.646;2022-08-03T08:29:25;0.70;;;0.70;;
11506;SDS011;5810;51.180;6.646;2022-08-03T08:31:51;2.53;;;1.33;;
11506;SDS011;5810;51.180;6.646;2022-08-03T08:34:17;0.60;;;0.60;;
11506;SDS011;5810;51.180;6.646;2022-08-03T08:36:43;0.60;;;0.60;;
11506;SDS011;5810;51.180;6.646;2022-08-03T08:39:09;0.60;;;0.60;;
11506;SDS011;5810;51.180;6.646;2022-08-03T08:41:36;0.50;;;0.50;;
11506;SDS011;5810;51.180;6.646;2022-08-03T08:44:02;0.63;;;0.63;;
11506;SDS011;5810;51.180;6.646;2022-08-03T08:46:29;0.60;;;0.60;;
11506;SDS011;5810;51.180;6.646;2022-08-03T08:48:56;0.73;;;0.73;;
11506;SDS011;5810;51.180;6.646;2022-08-03T08:51:27;0.60;;;0.60;;
11506;SDS011;5810;51.180;6.646;2022-08-03T08:53:54;0.60;;;0.60;;
11506;SDS011;5810;51.180;6.646;2022-08-03T08:56:21;0.60;;;0.60;;
11506;SDS011;5810;51.180;6.646;2022-08-03T08:58:53;0.60;;;0.60;;
11506;SDS011;5810;51.180;6.646;2022-08-03T09:01:22;0.60;;;0.60;;
11506;SDS011;5810;51.180;6.646;2022-08-03T09:03:48;0.60;;;0.60;;
11506;SDS011;5810;51.180;6.646;2022-08-03T09:06:15;0.90;;;0.90;;
11506;SDS011;5810;51.180;6.646;2022-08-03T09:08:41;0.70;;;0.70;;
11506;SDS011;5810;51.180;6.646;2022-08-03T09:11:07;0.57;;;0.57;;
11506;SDS011;5810;51.180;6.646;2022-08-03T09:13:33;0.70;;;0.70;;
11506;SDS011;5810;51.180;6.646;2022-08-03T09:16:33;0.60;;;0.60;;
11506;SDS011;5810;51.180;6.646;2022-08-03T09:18:52;0.60;;;0.60;;
11506;SDS011;5810;51.180;6.646;2022-08-03T09:21:25;0.65;;;0.65;;
11506;SDS011;5810;51.180;6.646;2022-08-03T09:23:53;0.95;;;0.95;;
11506;SDS011;5810;51.180;6.646;2022-08-03T09:26:20;0.60;;;0.60;;
11506;SDS011;5810;51.180;6.646;2022-08-03T09:28:52;0.70;;;0.70;;
11506;SDS011;5810;51.180;6.646;2022-08-03T09:31:19;0.70;;;0.70;;
11506;SDS011;5810;51.180;6.646;2022-08-03T09:33:46;0.70;;;0.70;;
11506;SDS011;5810;51.180;6.646;2022-08-03T09:36:33;0.60;;;0.60;;
11506;SDS011;5810;51.180;6.646;2022-08-03T09:39:02;3.10;;;1.23;;
11506;SDS011;5810;51.180;6.646;2022-08-03T09:41:30;0.70;;;0.70;;
11506;SDS011;5810;51.180;6.646;2022-08-03T09:43:56;0.70;;;0.70;;
11506;SDS011;5810;51.180;6.646;2022-08-03T09:46:22;0.70;;;0.70;;
11506;SDS011;5810;51.180;6.646;2022-08-03T09:48:48;0.65;;;0.65;;
11506;SDS011;5810;51.180;6.646;2022-08-03T09:51:14;0.70;;;0.70;;
11506;SDS011;5810;51.180;6.646;2022-08-03T09:53:43;0.70;;;0.70;;
11506;SDS011;5810;51.180;6.646;2022-08-03T09:56:09;0.90;;;0.90;;
11506;SDS011;5810;51.180;6.646;2022-08-03T09:58:43;0.75;;;0.75;;
11506;SDS011;5810;51.180;6.646;2022-08-03T10:01:10;0.70;;;0.70;;
11506;SDS011;5810;51.180;6.646;2022-08-03T10:03:37;0.80;;;0.80;;
11506;SDS011;5810;51.180;6.646;2022-08-03T10:06:13;0.70;;;0.70;;
11506;SDS011;5810;51.180;6.646;2022-08-03T10:08:39;0.80;;;0.80;;
11506;SDS011;5810;51.180;6.646;2022-08-03T10:11:05;0.80;;;0.80;;
11506;SDS011;5810;51.180;6.646;2022-08-03T10:13:32;0.70;;;0.70;;
11506;SDS011;5810;51.180;6.646;2022-08-03T10:15:58;1.75;;;0.90;;
11506;SDS011;5810;51.180;6.646;2022-08-03T10:18:24;0.80;;;0.80;;
11506;SDS011;5810;51.180;6.646;2022-08-03T10:20:51;0.80;;;0.80;;
11506;SDS011;5810;51.180;6.646;2022-08-03T10:23:17;0.90;;;0.90;;
11506;SDS011;5810;51.180;6.646;2022-08-03T10:25:45;0.80;;;0.80;;
11506;SDS011;5810;51.180;6.646;2022-08-03T10:28:14;1.00;;;1.00;;
11506;SDS011;5810;51.180;6.646;2022-08-03T10:30:40;1.00;;;1.00;;
11506;SDS011;5810;51.180;6.646;2022-08-03T10:33:12;0.90;;;0.90;;
11506;SDS011;5810;51.180;6.646;2022-08-03T10:35:39;0.90;;;0.90;;
11506;SDS011;5810;51.180;6.646;2022-08-03T10:38:10;0.80;;;0.80;;
11506;SDS011;5810;51.180;6.646;2022-08-03T10:40:37;1.00;;;1.00;;
11506;SDS011;5810;51.180;6.646;2022-08-03T10:43:26;1.50;;;1.42;;
11506;SDS011;5810;51.180;6.646;2022-08-03T10:45:50;1.00;;;1.00;;
11506;SDS011;5810;51.180;6.646;2022-08-03T10:48:17;0.90;;;0.90;;
11506;SDS011;5810;51.180;6.646;2022-08-03T10:50:43;1.00;;;1.00;;
11506;SDS011;5810;51.180;6.646;2022-08-03T10:53:09;1.00;;;1.00;;
11506;SDS011;5810;51.180;6.646;2022-08-03T11:01:05;0.90;;;0.90;;
11506;SDS011;5810;51.180;6.646;2022-08-03T11:03:31;0.90;;;0.90;;
11506;SDS011;5810;51.180;6.646;2022-08-03T11:08:41;0.95;;;0.95;;
11506;SDS011;5810;51.180;6.646;2022-08-03T11:14:05;1.00;;;1.00;;
11506;SDS011;5810;51.180;6.646;2022-08-03T11:16:35;0.98;;;0.98;;
11506;SDS011;5810;51.180;6.646;2022-08-03T11:19:06;0.90;;;0.90;;
11506;SDS011;5810;51.180;6.646;2022-08-03T11:29:58;0.90;;;0.90;;
11506;SDS011;5810;51.180;6.646;2022-08-03T11:35:14;0.93;;;0.93;;
11506;SDS011;5810;51.180;6.646;2022-08-03T11:45:35;1.15;;;1.15;;
11506;SDS011;5810;51.180;6.646;2022-08-03T11:48:11;1.00;;;1.00;;
11506;SDS011;5810;51.180;6.646;2022-08-03T11:50:38;1.00;;;1.00;;
11506;SDS011;5810;51.180;6.646;2022-08-03T11:53:04;0.90;;;0.90;;
11506;SDS011;5810;51.180;6.646;2022-08-03T11:55:30;1.08;;;1.08;;
11506;SDS011;5810;51.180;6.646;2022-08-03T11:57:59;1.20;;;1.20;;
11506;SDS011;5810;51.180;6.646;2022-08-03T12:00:29;1.55;;;1.45;;
11506;SDS011;5810;51.180;6.646;2022-08-03T12:03:00;1.02;;;1.02;;
11506;SDS011;5810;51.180;6.646;2022-08-03T12:05:33;1.10;;;1.10;;
11506;SDS011;5810;51.180;6.646;2022-08-03T12:07:59;1.00;;;1.00;;
11506;SDS011;5810;51.180;6.646;2022-08-03T12:10:25;1.00;;;1.00;;
11506;SDS011;5810;51.180;6.646;2022-08-03T12:12:55;1.20;;;1.20;;
11506;SDS011;5810;51.180;6.646;2022-08-03T12:15:28;1.50;;;1.30;;
11506;SDS011;5810;51.180;6.646;2022-08-03T12:17:56;0.98;;;0.98;;
11506;SDS011;5810;51.180;6.646;2022-08-03T12:20:23;1.23;;;1.20;;
11506;SDS011;5810;51.180;6.646;2022-08-03T12:22:50;1.10;;;1.10;;
11506;SDS011;5810;51.180;6.646;2022-08-03T12:25:23;1.10;;;1.10;;
11506;SDS011;5810;51.180;6.646;2022-08-03T12:27:50;1.30;;;1.30;;
11506;SDS011;5810;51.180;6.646;2022-08-03T12:30:16;1.27;;;1.27;;
11506;SDS011;5810;51.180;6.646;2022-08-03T12:32:42;1.10;;;1.10;;
11506;SDS011;5810;51.180;6.646;2022-08-03T12:35:09;2.90;;;2.75;;
11506;SDS011;5810;51.180;6.646;2022-08-03T12:37:35;1.10;;;1.10;;
11506;SDS011;5810;51.180;6.646;2022-08-03T12:40:02;1.83;;;1.65;;
11506;SDS011;5810;51.180;6.646;2022-08-03T12:42:31;1.55;;;1.30;;
11506;SDS011;5810;51.180;6.646;2022-08-03T12:44:57;1.20;;;1.20;;
11506;SDS011;5810;51.180;6.646;2022-08-03T12:47:23;1.73;;;1.63;;
11506;SDS011;5810;51.180;6.646;2022-08-03T12:49:52;4.20;;;2.33;;
11506;SDS011;5810;51.180;6.646;2022-08-03T12:52:21;1.10;;;1.10;;
11506;SDS011;5810;51.180;6.646;2022-08-03T12:54:54;1.20;;;1.20;;
11506;SDS011;5810;51.180;6.646;2022-08-03T12:57:20;1.10;;;1.10;;
11506;SDS011;5810;51.180;6.646;2022-08-03T12:59:46;1.23;;;1.23;;
11506;SDS011;5810;51.180;6.646;2022-08-03T13:02:16;1.20;;;1.20;;
11506;SDS011;5810;51.180;6.646;2022-08-03T13:04:43;1.20;;;1.20;;
11506;SDS011;5810;51.180;6.646;2022-08-03T13:07:10;1.08;;;1.08;;
11506;SDS011;5810;51.180;6.646;2022-08-03T13:09:54;1.35;;;1.35;;
11506;SDS011;5810;51.180;6.646;2022-08-03T13:12:22;1.10;;;1.10;;
11506;SDS011;5810;51.180;6.646;2022-08-03T13:14:50;1.00;;;1.00;;
11506;SDS011;5810;51.180;6.646;2022-08-03T13:17:17;1.00;;;1.00;;
11506;SDS011;5810;51.180;6.646;2022-08-03T13:19:43;1.10;;;1.10;;
11506;SDS011;5810;51.180;6.646;2022-08-03T13:22:16;1.02;;;1.02;;
11506;SDS011;5810;51.180;6.646;2022-08-03T13:24:43;1.27;;;1.25;;
11506;SDS011;5810;51.180;6.646;2022-08-03T13:27:09;1.00;;;1.00;;
11506;SDS011;5810;51.180;6.646;2022-08-03T13:29:36;1.20;;;1.05;;
11506;SDS011;5810;51.180;6.646;2022-08-03T13:32:02;1.27;;;1.27;;
11506;SDS011;5810;51.180;6.646;2022-08-03T13:34:28;1.95;;;1.55;;
11506;SDS011;5810;51.180;6.646;2022-08-03T13:36:54;1.00;;;1.00;;
11506;SDS011;5810;51.180;6.646;2022-08-03T13:39:20;1.10;;;1.10;;
11506;SDS011;5810;51.180;6.646;2022-08-03T13:41:46;1.00;;;1.00;;
11506;SDS011;5810;51.180;6.646;2022-08-03T13:44:12;1.42;;;1.33;;
11506;SDS011;5810;51.180;6.646;2022-08-03T13:46:38;1.00;;;1.00;;
11506;SDS011;5810;51.180;6.646;2022-08-03T13:49:05;1.00;;;1.00;;
11506;SDS011;5810;51.180;6.646;2022-08-03T13:51:31;1.00;;;1.00;;
11506;SDS011;5810;51.180;6.646;2022-08-03T13:53:58;1.13;;;1.13;;
11506;SDS011;5810;51.180;6.646;2022-08-03T13:56:27;1.00;;;1.00;;
11506;SDS011;5810;51.180;6.646;2022-08-03T13:58:53;0.98;;;0.98;;
11506;SDS011;5810;51.180;6.646;2022-08-03T14:01:19;0.90;;;0.90;;
11506;SDS011;5810;51.180;6.646;2022-08-03T14:03:46;1.10;;;1.10;;
11506;SDS011;5810;51.180;6.646;2022-08-03T14:06:14;1.00;;;1.00;;
11506;SDS011;5810;51.180;6.646;2022-08-03T14:08:40;1.00;;;1.00;;
11506;SDS011;5810;51.180;6.646;2022-08-03T14:11:06;1.00;;;1.00;;
11506;SDS011;5810;51.180;6.646;2022-08-03T14:13:32;1.20;;;1.20;;
11506;SDS011;5810;51.180;6.646;2022-08-03T14:15:59;1.00;;;1.00;;
11506;SDS011;5810;51.180;6.646;2022-08-03T14:18:25;1.05;;;1.05;;
11506;SDS011;5810;51.180;6.646;2022-08-03T14:20:51;1.15;;;1.15;;
11506;SDS011;5810;51.180;6.646;2022-08-03T14:23:17;1.00;;;1.00;;
11506;SDS011;5810;51.180;6.646;2022-08-03T14:25:43;1.00;;;1.00;;
11506;SDS011;5810;51.180;6.646;2022-08-03T14:28:09;0.98;;;0.98;;
11506;SDS011;5810;51.180;6.646;2022-08-03T14:30:35;1.00;;;1.00;;
11506;SDS011;5810;51.180;6.646;2022-08-03T14:33:01;1.20;;;1.20;;
11506;SDS011;5810;51.180;6.646;2022-08-03T14:35:27;1.00;;;1.00;;
11506;SDS011;5810;51.180;6.646;2022-08-03T14:37:53;1.00;;;1.00;;
11506;SDS011;5810;51.180;6.646;2022-08-03T14:40:20;1.52;;;1.42;;
11506;SDS011;5810;51.180;6.646;2022-08-03T14:42:46;0.90;;;0.90;;
11506;SDS011;5810;51.180;6.646;2022-08-03T14:45:12;0.90;;;0.90;;
11506;SDS011;5810;51.180;6.646;2022-08-03T14:47:39;1.00;;;1.00;;
11506;SDS011;5810;51.180;6.646;2022-08-03T14:50:05;0.90;;;0.90;;
11506;SDS011;5810;51.180;6.646;2022-08-03T14:52:31;1.10;;;1.10;;
11506;SDS011;5810;51.180;6.646;2022-08-03T14:54:58;1.23;;;1.23;;
11506;SDS011;5810;51.180;6.646;2022-08-03T14:57:24;1.00;;;1.00;;
11506;SDS011;5810;51.180;6.646;2022-08-03T14:59:50;1.00;;;1.00;;
11506;SDS011;5810;51.180;6.646;2022-08-03T15:02:16;0.98;;;0.98;;
11506;SDS011;5810;51.180;6.646;2022-08-03T15:04:42;1.00;;;1.00;;
11506;SDS011;5810;51.180;6.646;2022-08-03T15:07:08;1.10;;;1.10;;
11506;SDS011;5810;51.180;6.646;2022-08-03T15:09:34;1.55;;;1.38;;
11506;SDS011;5810;51.180;6.646;2022-08-03T15:12:02;0.90;;;0.90;;
11506;SDS011;5810;51.180;6.646;2022-08-03T15:14:28;0.90;;;0.90;;
11506;SDS011;5810;51.180;6.646;2022-08-03T15:16:54;1.08;;;1.08;;
11506;SDS011;5810;51.180;6.646;2022-08-03T15:19:20;0.90;;;0.90;;
11506;SDS011;5810;51.180;6.646;2022-08-03T15:21:46;1.20;;;1.20;;
11506;SDS011;5810;51.180;6.646;2022-08-03T15:24:12;0.90;;;0.90;;
11506;SDS011;5810;51.180;6.646;2022-08-03T15:26:38;0.90;;;0.90;;
11506;SDS011;5810;51.180;6.646;2022-08-03T15:29:04;1.00;;;1.00;;
11506;SDS011;5810;51.180;6.646;2022-08-03T15:31:32;1.15;;;1.15;;
11506;SDS011;5810;51.180;6.646;2022-08-03T15:33:58;0.90;;;0.90;;
11506;SDS011;5810;51.180;6.646;2022-08-03T15:36:24;1.00;;;1.00;;
11506;SDS011;5810;51.180;6.646;2022-08-03T15:38:50;0.85;;;0.85;;
11506;SDS011;5810;51.180;6.646;2022-08-03T15:41:16;0.90;;;0.90;;
11506;SDS011;5810;51.180;6.646;2022-08-03T15:43:42;0.90;;;0.90;;
11506;SDS011;5810;51.180;6.646;2022-08-03T15:46:10;0.90;;;0.90;;
11506;SDS011;5810;51.180;6.646;2022-08-03T15:48:36;0.90;;;0.90;;